Terminal Aerodrome Forecast
Issued by NWS

Home | Current Version | Previous Version | Text Only | Print | Product List | Glossary On
Versions: 1 2 3 4 5 6 7 8 9 10 11 12 13 14 15 16 17 18 19
000
FTUS43 KDTX 200500
TAFMBS
TAF
KMBS 200526Z 2006/2106 21007KT P6SM OVC012
     FM200800 18005KT 3SM BR BKN012
     FM201000 VRB03KT 1SM BR BKN007
     FM201200 23005KT 3SM BR BKN020
     FM201400 25007KT P6SM BKN035
     FM201900 28007KT 6SM -SHRA OVC045
     FM210100 25005KT P6SM SCT045 BKN120=

USA.gov is the U.S. government's official web portal to all federal, state and local government web resources and services.